sensor_id;sensor_type;location;lat;lon;timestamp;P1;durP1;ratioP1;P2;durP2;ratioP2
65206;SDS011;58477;48.072;11.970;2023-07-20T00:01:27;5.45;;;3.38;;
65206;SDS011;58477;48.072;11.970;2023-07-20T00:03:53;3.80;;;3.25;;
65206;SDS011;58477;48.072;11.970;2023-07-20T00:06:21;5.25;;;3.55;;
65206;SDS011;58477;48.072;11.970;2023-07-20T00:08:49;6.43;;;3.58;;
65206;SDS011;58477;48.072;11.970;2023-07-20T00:11:14;4.70;;;3.30;;
65206;SDS011;58477;48.072;11.970;2023-07-20T00:13:40;7.35;;;3.72;;
65206;SDS011;58477;48.072;11.970;2023-07-20T00:16:06;4.82;;;3.45;;
65206;SDS011;58477;48.072;11.970;2023-07-20T00:18:31;6.35;;;3.67;;
65206;SDS011;58477;48.072;11.970;2023-07-20T00:20:57;18.52;;;3.50;;
65206;SDS011;58477;48.072;11.970;2023-07-20T00:23:22;4.50;;;3.30;;
65206;SDS011;58477;48.072;11.970;2023-07-20T00:25:48;7.47;;;3.42;;
65206;SDS011;58477;48.072;11.970;2023-07-20T00:28:14;7.40;;;3.47;;
65206;SDS011;58477;48.072;11.970;2023-07-20T00:30:40;22.92;;;3.67;;
65206;SDS011;58477;48.072;11.970;2023-07-20T00:33:10;7.13;;;3.63;;
65206;SDS011;58477;48.072;11.970;2023-07-20T00:35:37;7.05;;;3.55;;
65206;SDS011;58477;48.072;11.970;2023-07-20T00:38:05;6.43;;;3.65;;
65206;SDS011;58477;48.072;11.970;2023-07-20T00:40:37;7.32;;;3.42;;
65206;SDS011;58477;48.072;11.970;2023-07-20T00:43:03;7.20;;;3.22;;
65206;SDS011;58477;48.072;11.970;2023-07-20T00:45:29;8.00;;;3.72;;
65206;SDS011;58477;48.072;11.970;2023-07-20T00:47:55;5.50;;;3.00;;
65206;SDS011;58477;48.072;11.970;2023-07-20T00:50:21;6.28;;;3.42;;
65206;SDS011;58477;48.072;11.970;2023-07-20T00:52:47;6.95;;;3.70;;
65206;SDS011;58477;48.072;11.970;2023-07-20T00:55:13;10.20;;;3.95;;
65206;SDS011;58477;48.072;11.970;2023-07-20T00:57:39;5.47;;;3.90;;
65206;SDS011;58477;48.072;11.970;2023-07-20T01:00:05;9.48;;;3.42;;
65206;SDS011;58477;48.072;11.970;2023-07-20T01:02:31;6.72;;;3.60;;
65206;SDS011;58477;48.072;11.970;2023-07-20T01:04:57;5.72;;;3.50;;
65206;SDS011;58477;48.072;11.970;2023-07-20T01:07:24;7.05;;;3.53;;
65206;SDS011;58477;48.072;11.970;2023-07-20T01:12:53;9.98;;;3.90;;
65206;SDS011;58477;48.072;11.970;2023-07-20T01:15:20;5.80;;;3.40;;
65206;SDS011;58477;48.072;11.970;2023-07-20T01:17:46;5.38;;;3.92;;
65206;SDS011;58477;48.072;11.970;2023-07-20T01:20:12;9.90;;;3.72;;
65206;SDS011;58477;48.072;11.970;2023-07-20T01:33:56;8.07;;;3.60;;
65206;SDS011;58477;48.072;11.970;2023-07-20T01:36:26;6.85;;;3.60;;
65206;SDS011;58477;48.072;11.970;2023-07-20T01:38:55;5.63;;;3.15;;
65206;SDS011;58477;48.072;11.970;2023-07-20T01:41:21;5.97;;;3.17;;
65206;SDS011;58477;48.072;11.970;2023-07-20T01:43:48;5.32;;;3.50;;
65206;SDS011;58477;48.072;11.970;2023-07-20T01:46:14;9.10;;;3.60;;
65206;SDS011;58477;48.072;11.970;2023-07-20T01:48:40;8.63;;;3.47;;
65206;SDS011;58477;48.072;11.970;2023-07-20T01:51:07;7.28;;;3.65;;
65206;SDS011;58477;48.072;11.970;2023-07-20T01:53:33;6.10;;;3.33;;
65206;SDS011;58477;48.072;11.970;2023-07-20T01:55:59;7.10;;;3.50;;
65206;SDS011;58477;48.072;11.970;2023-07-20T01:58:24;7.97;;;4.07;;
65206;SDS011;58477;48.072;11.970;2023-07-20T02:00:50;6.53;;;3.38;;
65206;SDS011;58477;48.072;11.970;2023-07-20T02:03:15;8.23;;;3.63;;
65206;SDS011;58477;48.072;11.970;2023-07-20T02:05:44;6.32;;;3.72;;
65206;SDS011;58477;48.072;11.970;2023-07-20T02:08:10;6.75;;;3.80;;
65206;SDS011;58477;48.072;11.970;2023-07-20T02:10:35;5.90;;;4.07;;
65206;SDS011;58477;48.072;11.970;2023-07-20T02:13:01;4.35;;;3.65;;
65206;SDS011;58477;48.072;11.970;2023-07-20T02:15:26;5.18;;;3.90;;
65206;SDS011;58477;48.072;11.970;2023-07-20T02:17:53;8.98;;;3.35;;
65206;SDS011;58477;48.072;11.970;2023-07-20T02:20:18;9.10;;;3.90;;
65206;SDS011;58477;48.072;11.970;2023-07-20T02:22:44;6.38;;;3.63;;
65206;SDS011;58477;48.072;11.970;2023-07-20T02:25:10;5.07;;;3.45;;
65206;SDS011;58477;48.072;11.970;2023-07-20T02:27:36;8.93;;;3.65;;
65206;SDS011;58477;48.072;11.970;2023-07-20T02:30:02;5.43;;;3.40;;
65206;SDS011;58477;48.072;11.970;2023-07-20T02:32:29;6.28;;;4.15;;
65206;SDS011;58477;48.072;11.970;2023-07-20T02:34:55;9.05;;;3.42;;
65206;SDS011;58477;48.072;11.970;2023-07-20T02:37:21;4.88;;;3.45;;
65206;SDS011;58477;48.072;11.970;2023-07-20T02:39:47;10.30;;;3.58;;
65206;SDS011;58477;48.072;11.970;2023-07-20T02:42:12;3.90;;;3.03;;
65206;SDS011;58477;48.072;11.970;2023-07-20T02:44:38;7.22;;;3.17;;
65206;SDS011;58477;48.072;11.970;2023-07-20T02:47:04;4.80;;;3.10;;
65206;SDS011;58477;48.072;11.970;2023-07-20T02:49:30;6.75;;;3.30;;
65206;SDS011;58477;48.072;11.970;2023-07-20T02:51:55;7.90;;;3.20;;
65206;SDS011;58477;48.072;11.970;2023-07-20T02:54:21;8.18;;;3.17;;
65206;SDS011;58477;48.072;11.970;2023-07-20T02:56:47;6.00;;;3.17;;
65206;SDS011;58477;48.072;11.970;2023-07-20T02:59:12;5.32;;;3.00;;
65206;SDS011;58477;48.072;11.970;2023-07-20T03:01:37;4.00;;;3.20;;
65206;SDS011;58477;48.072;11.970;2023-07-20T03:04:03;6.53;;;3.30;;
65206;SDS011;58477;48.072;11.970;2023-07-20T03:06:29;5.68;;;2.92;;
65206;SDS011;58477;48.072;11.970;2023-07-20T03:08:54;5.53;;;2.90;;
65206;SDS011;58477;48.072;11.970;2023-07-20T03:11:20;6.68;;;3.10;;
65206;SDS011;58477;48.072;11.970;2023-07-20T03:13:46;8.40;;;3.00;;
65206;SDS011;58477;48.072;11.970;2023-07-20T03:16:13;3.17;;;2.58;;
65206;SDS011;58477;48.072;11.970;2023-07-20T03:18:42;6.47;;;3.00;;
65206;SDS011;58477;48.072;11.970;2023-07-20T03:21:08;5.32;;;2.83;;
65206;SDS011;58477;48.072;11.970;2023-07-20T03:23:34;3.25;;;2.67;;
65206;SDS011;58477;48.072;11.970;2023-07-20T03:26:03;4.65;;;2.78;;
65206;SDS011;58477;48.072;11.970;2023-07-20T03:28:30;3.05;;;2.25;;
65206;SDS011;58477;48.072;11.970;2023-07-20T03:30:56;3.38;;;2.50;;
65206;SDS011;58477;48.072;11.970;2023-07-20T03:33:24;3.22;;;1.95;;
65206;SDS011;58477;48.072;11.970;2023-07-20T03:35:51;5.20;;;2.58;;
65206;SDS011;58477;48.072;11.970;2023-07-20T03:38:16;6.22;;;2.38;;
65206;SDS011;58477;48.072;11.970;2023-07-20T03:40:55;2.88;;;2.10;;
65206;SDS011;58477;48.072;11.970;2023-07-20T03:43:22;6.93;;;2.35;;
65206;SDS011;58477;48.072;11.970;2023-07-20T03:45:48;2.13;;;1.65;;
65206;SDS011;58477;48.072;11.970;2023-07-20T03:48:18;3.30;;;2.35;;
65206;SDS011;58477;48.072;11.970;2023-07-20T03:50:47;3.40;;;2.35;;
65206;SDS011;58477;48.072;11.970;2023-07-20T03:53:13;4.03;;;2.25;;
65206;SDS011;58477;48.072;11.970;2023-07-20T03:55:40;8.18;;;2.38;;
65206;SDS011;58477;48.072;11.970;2023-07-20T04:00:38;7.30;;;2.40;;
65206;SDS011;58477;48.072;11.970;2023-07-20T04:03:04;3.88;;;2.33;;
65206;SDS011;58477;48.072;11.970;2023-07-20T04:05:29;4.18;;;2.13;;
65206;SDS011;58477;48.072;11.970;2023-07-20T04:07:55;3.67;;;2.20;;
65206;SDS011;58477;48.072;11.970;2023-07-20T04:10:20;2.72;;;2.13;;
65206;SDS011;58477;48.072;11.970;2023-07-20T04:12:46;3.42;;;2.10;;
65206;SDS011;58477;48.072;11.970;2023-07-20T04:15:14;3.92;;;2.25;;
65206;SDS011;58477;48.072;11.970;2023-07-20T04:17:40;5.65;;;1.98;;
65206;SDS011;58477;48.072;11.970;2023-07-20T04:20:06;3.03;;;1.70;;
65206;SDS011;58477;48.072;11.970;2023-07-20T04:22:32;2.67;;;1.85;;
65206;SDS011;58477;48.072;11.970;2023-07-20T04:24:58;1.83;;;1.52;;
65206;SDS011;58477;48.072;11.970;2023-07-20T04:27:23;2.20;;;1.52;;
65206;SDS011;58477;48.072;11.970;2023-07-20T04:29:49;2.85;;;1.50;;
65206;SDS011;58477;48.072;11.970;2023-07-20T04:32:14;3.67;;;1.88;;
65206;SDS011;58477;48.072;11.970;2023-07-20T04:34:39;5.65;;;1.58;;
65206;SDS011;58477;48.072;11.970;2023-07-20T04:37:05;1.60;;;1.50;;
65206;SDS011;58477;48.072;11.970;2023-07-20T04:39:30;3.45;;;2.05;;
65206;SDS011;58477;48.072;11.970;2023-07-20T04:41:57;2.00;;;1.80;;
65206;SDS011;58477;48.072;11.970;2023-07-20T04:44:23;2.88;;;1.40;;
65206;SDS011;58477;48.072;11.970;2023-07-20T04:46:49;8.60;;;2.53;;
65206;SDS011;58477;48.072;11.970;2023-07-20T04:49:15;1.98;;;1.50;;
65206;SDS011;58477;48.072;11.970;2023-07-20T04:51:42;4.00;;;1.65;;
65206;SDS011;58477;48.072;11.970;2023-07-20T04:54:08;3.08;;;1.80;;
65206;SDS011;58477;48.072;11.970;2023-07-20T04:56:36;4.88;;;1.70;;
65206;SDS011;58477;48.072;11.970;2023-07-20T04:59:04;2.20;;;1.58;;
65206;SDS011;58477;48.072;11.970;2023-07-20T05:01:30;3.28;;;1.30;;
65206;SDS011;58477;48.072;11.970;2023-07-20T05:03:55;3.88;;;1.40;;
65206;SDS011;58477;48.072;11.970;2023-07-20T05:06:21;4.57;;;1.80;;
65206;SDS011;58477;48.072;11.970;2023-07-20T05:08:47;2.05;;;1.40;;
65206;SDS011;58477;48.072;11.970;2023-07-20T05:11:12;1.45;;;1.35;;
65206;SDS011;58477;48.072;11.970;2023-07-20T05:13:38;2.28;;;1.80;;
65206;SDS011;58477;48.072;11.970;2023-07-20T05:16:04;4.15;;;1.42;;
65206;SDS011;58477;48.072;11.970;2023-07-20T05:18:30;3.35;;;1.33;;
65206;SDS011;58477;48.072;11.970;2023-07-20T05:20:56;3.03;;;1.63;;
65206;SDS011;58477;48.072;11.970;2023-07-20T05:23:22;4.53;;;1.50;;
65206;SDS011;58477;48.072;11.970;2023-07-20T05:25:57;3.50;;;1.42;;
65206;SDS011;58477;48.072;11.970;2023-07-20T05:28:24;2.10;;;1.40;;
65206;SDS011;58477;48.072;11.970;2023-07-20T05:30:51;3.25;;;1.38;;
65206;SDS011;58477;48.072;11.970;2023-07-20T05:33:17;4.00;;;1.45;;
65206;SDS011;58477;48.072;11.970;2023-07-20T05:35:43;5.78;;;1.58;;
65206;SDS011;58477;48.072;11.970;2023-07-20T05:38:09;3.00;;;1.45;;
65206;SDS011;58477;48.072;11.970;2023-07-20T05:40:37;5.93;;;1.60;;
65206;SDS011;58477;48.072;11.970;2023-07-20T05:43:03;1.95;;;1.23;;
65206;SDS011;58477;48.072;11.970;2023-07-20T05:45:28;1.67;;;1.58;;
65206;SDS011;58477;48.072;11.970;2023-07-20T05:47:54;2.58;;;1.55;;
65206;SDS011;58477;48.072;11.970;2023-07-20T05:50:19;4.60;;;1.50;;
65206;SDS011;58477;48.072;11.970;2023-07-20T05:52:44;3.88;;;1.60;;
65206;SDS011;58477;48.072;11.970;2023-07-20T05:55:10;3.38;;;1.50;;
65206;SDS011;58477;48.072;11.970;2023-07-20T05:57:35;3.55;;;1.30;;
65206;SDS011;58477;48.072;11.970;2023-07-20T06:00:01;2.03;;;1.08;;
65206;SDS011;58477;48.072;11.970;2023-07-20T06:02:37;3.50;;;1.17;;
65206;SDS011;58477;48.072;11.970;2023-07-20T06:05:02;1.83;;;1.33;;
65206;SDS011;58477;48.072;11.970;2023-07-20T06:07:28;3.05;;;1.45;;
65206;SDS011;58477;48.072;11.970;2023-07-20T06:09:54;1.63;;;1.52;;
65206;SDS011;58477;48.072;11.970;2023-07-20T06:12:19;5.47;;;1.50;;
65206;SDS011;58477;48.072;11.970;2023-07-20T06:14:44;1.83;;;1.27;;
65206;SDS011;58477;48.072;11.970;2023-07-20T06:17:10;5.22;;;1.40;;
65206;SDS011;58477;48.072;11.970;2023-07-20T06:19:35;2.47;;;1.60;;
65206;SDS011;58477;48.072;11.970;2023-07-20T06:22:01;1.33;;;1.23;;
65206;SDS011;58477;48.072;11.970;2023-07-20T06:24:26;2.42;;;1.48;;
65206;SDS011;58477;48.072;11.970;2023-07-20T06:26:52;1.60;;;1.50;;
65206;SDS011;58477;48.072;11.970;2023-07-20T06:29:17;3.58;;;1.55;;
65206;SDS011;58477;48.072;11.970;2023-07-20T06:31:43;1.70;;;1.45;;
65206;SDS011;58477;48.072;11.970;2023-07-20T06:34:09;1.95;;;1.52;;
65206;SDS011;58477;48.072;11.970;2023-07-20T06:36:34;2.90;;;1.40;;
65206;SDS011;58477;48.072;11.970;2023-07-20T06:39:00;2.78;;;1.50;;
65206;SDS011;58477;48.072;11.970;2023-07-20T06:41:25;2.47;;;1.70;;
65206;SDS011;58477;48.072;11.970;2023-07-20T06:43:51;2.33;;;1.70;;
65206;SDS011;58477;48.072;11.970;2023-07-20T06:46:17;7.57;;;1.77;;
65206;SDS011;58477;48.072;11.970;2023-07-20T06:48:43;2.00;;;1.38;;
65206;SDS011;58477;48.072;11.970;2023-07-20T06:51:08;1.35;;;1.10;;
65206;SDS011;58477;48.072;11.970;2023-07-20T06:53:33;2.65;;;1.70;;
65206;SDS011;58477;48.072;11.970;2023-07-20T06:55:59;3.83;;;1.30;;
65206;SDS011;58477;48.072;11.970;2023-07-20T06:58:25;4.57;;;1.70;;
65206;SDS011;58477;48.072;11.970;2023-07-20T07:00:50;1.80;;;1.60;;
65206;SDS011;58477;48.072;11.970;2023-07-20T07:03:16;1.60;;;1.45;;
65206;SDS011;58477;48.072;11.970;2023-07-20T07:05:42;2.20;;;1.45;;
65206;SDS011;58477;48.072;11.970;2023-07-20T07:08:08;1.83;;;1.38;;
65206;SDS011;58477;48.072;11.970;2023-07-20T07:10:37;1.50;;;1.10;;
65206;SDS011;58477;48.072;11.970;2023-07-20T07:13:03;2.15;;;1.35;;
65206;SDS011;58477;48.072;11.970;2023-07-20T07:15:28;4.45;;;1.40;;
65206;SDS011;58477;48.072;11.970;2023-07-20T07:17:54;1.88;;;1.63;;
65206;SDS011;58477;48.072;11.970;2023-07-20T07:20:20;2.75;;;1.48;;
65206;SDS011;58477;48.072;11.970;2023-07-20T07:22:46;2.25;;;1.50;;
65206;SDS011;58477;48.072;11.970;2023-07-20T07:25:12;3.63;;;1.50;;
65206;SDS011;58477;48.072;11.970;2023-07-20T07:27:37;5.43;;;1.50;;
65206;SDS011;58477;48.072;11.970;2023-07-20T07:30:03;3.17;;;1.25;;
65206;SDS011;58477;48.072;11.970;2023-07-20T07:32:30;1.98;;;1.35;;
65206;SDS011;58477;48.072;11.970;2023-07-20T07:34:55;1.52;;;1.40;;
65206;SDS011;58477;48.072;11.970;2023-07-20T07:37:23;2.25;;;1.25;;
65206;SDS011;58477;48.072;11.970;2023-07-20T07:39:49;2.67;;;1.42;;
65206;SDS011;58477;48.072;11.970;2023-07-20T07:42:14;2.92;;;1.60;;
65206;SDS011;58477;48.072;11.970;2023-07-20T07:44:39;2.30;;;1.55;;
65206;SDS011;58477;48.072;11.970;2023-07-20T07:47:05;3.17;;;1.42;;
65206;SDS011;58477;48.072;11.970;2023-07-20T07:49:30;3.75;;;1.65;;
65206;SDS011;58477;48.072;11.970;2023-07-20T07:51:56;6.20;;;1.48;;
65206;SDS011;58477;48.072;11.970;2023-07-20T07:54:22;1.63;;;1.40;;
65206;SDS011;58477;48.072;11.970;2023-07-20T07:56:47;7.45;;;1.38;;
65206;SDS011;58477;48.072;11.970;2023-07-20T07:59:13;2.58;;;1.50;;
65206;SDS011;58477;48.072;11.970;2023-07-20T08:01:38;4.68;;;1.40;;
65206;SDS011;58477;48.072;11.970;2023-07-20T08:04:04;6.95;;;1.40;;
65206;SDS011;58477;48.072;11.970;2023-07-20T08:06:29;1.80;;;1.20;;
65206;SDS011;58477;48.072;11.970;2023-07-20T08:08:54;1.60;;;1.25;;
65206;SDS011;58477;48.072;11.970;2023-07-20T08:11:20;3.72;;;1.42;;
65206;SDS011;58477;48.072;11.970;2023-07-20T08:13:45;2.45;;;1.25;;
65206;SDS011;58477;48.072;11.970;2023-07-20T08:16:11;3.53;;;1.38;;
65206;SDS011;58477;48.072;11.970;2023-07-20T08:18:36;3.72;;;1.60;;
65206;SDS011;58477;48.072;11.970;2023-07-20T08:21:02;4.68;;;1.52;;
65206;SDS011;58477;48.072;11.970;2023-07-20T08:23:28;3.15;;;1.35;;
65206;SDS011;58477;48.072;11.970;2023-07-20T08:25:54;1.38;;;0.98;;
65206;SDS011;58477;48.072;11.970;2023-07-20T08:28:19;3.17;;;1.35;;
65206;SDS011;58477;48.072;11.970;2023-07-20T08:30:48;4.35;;;1.50;;
65206;SDS011;58477;48.072;11.970;2023-07-20T08:33:15;2.00;;;1.45;;
65206;SDS011;58477;48.072;11.970;2023-07-20T08:35:43;2.03;;;1.40;;
65206;SDS011;58477;48.072;11.970;2023-07-20T08:38:08;2.90;;;1.20;;
65206;SDS011;58477;48.072;11.970;2023-07-20T08:40:38;2.30;;;1.33;;
65206;SDS011;58477;48.072;11.970;2023-07-20T08:43:05;2.42;;;1.52;;
65206;SDS011;58477;48.072;11.970;2023-07-20T08:45:32;1.60;;;1.10;;
65206;SDS011;58477;48.072;11.970;2023-07-20T08:47:59;1.77;;;1.30;;
65206;SDS011;58477;48.072;11.970;2023-07-20T08:50:28;2.08;;;1.20;;
65206;SDS011;58477;48.072;11.970;2023-07-20T08:52:56;2.30;;;1.33;;
65206;SDS011;58477;48.072;11.970;2023-07-20T08:55:22;1.40;;;1.30;;
65206;SDS011;58477;48.072;11.970;2023-07-20T08:57:49;2.35;;;1.13;;
65206;SDS011;58477;48.072;11.970;2023-07-20T09:00:16;1.45;;;1.30;;
65206;SDS011;58477;48.072;11.970;2023-07-20T09:02:43;3.58;;;1.42;;
65206;SDS011;58477;48.072;11.970;2023-07-20T09:05:10;2.33;;;1.40;;
65206;SDS011;58477;48.072;11.970;2023-07-20T09:07:38;2.45;;;1.40;;
65206;SDS011;58477;48.072;11.970;2023-07-20T09:10:04;2.05;;;1.52;;
65206;SDS011;58477;48.072;11.970;2023-07-20T09:12:37;1.92;;;1.30;;
65206;SDS011;58477;48.072;11.970;2023-07-20T09:15:05;1.23;;;1.13;;
65206;SDS011;58477;48.072;11.970;2023-07-20T09:17:31;1.42;;;1.25;;
65206;SDS011;58477;48.072;11.970;2023-07-20T09:19:57;1.40;;;1.30;;
65206;SDS011;58477;48.072;11.970;2023-07-20T09:22:27;2.55;;;1.48;;
65206;SDS011;58477;48.072;11.970;2023-07-20T09:24:54;3.10;;;1.50;;
65206;SDS011;58477;48.072;11.970;2023-07-20T09:27:20;3.63;;;1.55;;
65206;SDS011;58477;48.072;11.970;2023-07-20T09:29:49;2.80;;;1.50;;
65206;SDS011;58477;48.072;11.970;2023-07-20T09:32:19;2.28;;;1.35;;
65206;SDS011;58477;48.072;11.970;2023-07-20T09:34:49;2.20;;;1.30;;
65206;SDS011;58477;48.072;11.970;2023-07-20T09:37:20;2.50;;;1.60;;
65206;SDS011;58477;48.072;11.970;2023-07-20T09:39:47;2.53;;;1.05;;
65206;SDS011;58477;48.072;11.970;2023-07-20T09:42:14;4.07;;;1.48;;
65206;SDS011;58477;48.072;11.970;2023-07-20T09:44:42;2.28;;;1.30;;
65206;SDS011;58477;48.072;11.970;2023-07-20T09:47:08;3.03;;;1.45;;
65206;SDS011;58477;48.072;11.970;2023-07-20T09:49:38;1.42;;;1.33;;
65206;SDS011;58477;48.072;11.970;2023-07-20T09:52:06;2.33;;;1.40;;
65206;SDS011;58477;48.072;11.970;2023-07-20T09:54:34;1.90;;;1.40;;
65206;SDS011;58477;48.072;11.970;2023-07-20T09:57:00;1.70;;;1.55;;
65206;SDS011;58477;48.072;11.970;2023-07-20T09:59:27;2.45;;;1.38;;
65206;SDS011;58477;48.072;11.970;2023-07-20T10:01:53;1.42;;;1.10;;
65206;SDS011;58477;48.072;11.970;2023-07-20T10:04:24;1.23;;;1.13;;
65206;SDS011;58477;48.072;11.970;2023-07-20T10:06:51;2.05;;;1.40;;
65206;SDS011;58477;48.072;11.970;2023-07-20T10:09:19;1.25;;;1.05;;
65206;SDS011;58477;48.072;11.970;2023-07-20T10:11:49;2.30;;;1.20;;
65206;SDS011;58477;48.072;11.970;2023-07-20T10:14:16;1.85;;;1.20;;
65206;SDS011;58477;48.072;11.970;2023-07-20T10:16:55;1.10;;;1.00;;
65206;SDS011;58477;48.072;11.970;2023-07-20T10:19:33;1.85;;;1.30;;
65206;SDS011;58477;48.072;11.970;2023-07-20T10:22:07;1.58;;;1.30;;
65206;SDS011;58477;48.072;11.970;2023-07-20T10:24:37;6.22;;;1.20;;
65206;SDS011;58477;48.072;11.970;2023-07-20T10:27:04;4.03;;;1.30;;
65206;SDS011;58477;48.072;11.970;2023-07-20T10:29:30;6.30;;;1.33;;
65206;SDS011;58477;48.072;11.970;2023-07-20T10:31:57;2.67;;;1.10;;
65206;SDS011;58477;48.072;11.970;2023-07-20T10:34:23;3.03;;;1.30;;
65206;SDS011;58477;48.072;11.970;2023-07-20T10:36:49;7.78;;;1.38;;
65206;SDS011;58477;48.072;11.970;2023-07-20T10:39:24;4.00;;;1.27;;
65206;SDS011;58477;48.072;11.970;2023-07-20T10:41:59;2.83;;;1.10;;
65206;SDS011;58477;48.072;11.970;2023-07-20T10:44:28;3.65;;;1.42;;
65206;SDS011;58477;48.072;11.970;2023-07-20T10:47:01;1.77;;;1.02;;
65206;SDS011;58477;48.072;11.970;2023-07-20T10:49:28;6.13;;;1.20;;
65206;SDS011;58477;48.072;11.970;2023-07-20T10:52:00;1.42;;;1.00;;
65206;SDS011;58477;48.072;11.970;2023-07-20T10:56:56;2.63;;;1.38;;
65206;SDS011;58477;48.072;11.970;2023-07-20T11:01:57;1.75;;;1.13;;
65206;SDS011;58477;48.072;11.970;2023-07-20T11:04:44;1.35;;;1.13;;
65206;SDS011;58477;48.072;11.970;2023-07-20T11:07:15;3.38;;;1.45;;
65206;SDS011;58477;48.072;11.970;2023-07-20T11:09:42;5.13;;;1.38;;
65206;SDS011;58477;48.072;11.970;2023-07-20T11:12:11;1.42;;;1.30;;
65206;SDS011;58477;48.072;11.970;2023-07-20T11:17:11;2.20;;;1.23;;
65206;SDS011;58477;48.072;11.970;2023-07-20T11:19:38;2.92;;;1.42;;
65206;SDS011;58477;48.072;11.970;2023-07-20T11:22:04;2.33;;;1.30;;
65206;SDS011;58477;48.072;11.970;2023-07-20T11:24:32;1.15;;;1.05;;
65206;SDS011;58477;48.072;11.970;2023-07-20T11:26:59;4.22;;;1.23;;
65206;SDS011;58477;48.072;11.970;2023-07-20T11:29:25;2.28;;;1.20;;
65206;SDS011;58477;48.072;11.970;2023-07-20T11:31:51;2.20;;;1.17;;
65206;SDS011;58477;48.072;11.970;2023-07-20T11:34:17;1.70;;;1.23;;
65206;SDS011;58477;48.072;11.970;2023-07-20T11:36:45;2.83;;;1.65;;
65206;SDS011;58477;48.072;11.970;2023-07-20T11:39:12;2.00;;;1.27;;
65206;SDS011;58477;48.072;11.970;2023-07-20T11:41:43;3.88;;;1.20;;
65206;SDS011;58477;48.072;11.970;2023-07-20T11:44:12;1.67;;;1.33;;
65206;SDS011;58477;48.072;11.970;2023-07-20T11:46:43;4.45;;;1.30;;
65206;SDS011;58477;48.072;11.970;2023-07-20T11:49:09;1.42;;;1.13;;
65206;SDS011;58477;48.072;11.970;2023-07-20T11:51:36;1.40;;;1.30;;
65206;SDS011;58477;48.072;11.970;2023-07-20T11:54:03;2.92;;;1.10;;
65206;SDS011;58477;48.072;11.970;2023-07-20T11:56:30;1.55;;;1.40;;
65206;SDS011;58477;48.072;11.970;2023-07-20T11:58:56;2.83;;;1.45;;
65206;SDS011;58477;48.072;11.970;2023-07-20T12:01:25;3.72;;;1.10;;
65206;SDS011;58477;48.072;11.970;2023-07-20T12:03:55;1.63;;;1.25;;
65206;SDS011;58477;48.072;11.970;2023-07-20T12:06:25;1.65;;;1.13;;
65206;SDS011;58477;48.072;11.970;2023-07-20T12:08:54;2.28;;;1.48;;
65206;SDS011;58477;48.072;11.970;2023-07-20T12:11:36;1.58;;;1.30;;
65206;SDS011;58477;48.072;11.970;2023-07-20T12:14:03;2.42;;;1.40;;
65206;SDS011;58477;48.072;11.970;2023-07-20T12:16:29;9.25;;;1.60;;
65206;SDS011;58477;48.072;11.970;2023-07-20T12:19:00;1.67;;;1.10;;
65206;SDS011;58477;48.072;11.970;2023-07-20T12:21:27;2.03;;;1.00;;
65206;SDS011;58477;48.072;11.970;2023-07-20T12:23:55;2.42;;;1.30;;
65206;SDS011;58477;48.072;11.970;2023-07-20T12:26:22;2.15;;;1.20;;
65206;SDS011;58477;48.072;11.970;2023-07-20T12:28:49;2.22;;;1.50;;
65206;SDS011;58477;48.072;11.970;2023-07-20T12:31:15;4.22;;;1.45;;
65206;SDS011;58477;48.072;11.970;2023-07-20T12:33:41;1.88;;;1.30;;
65206;SDS011;58477;48.072;11.970;2023-07-20T12:36:08;3.17;;;1.30;;
65206;SDS011;58477;48.072;11.970;2023-07-20T12:38:34;7.43;;;1.65;;
65206;SDS011;58477;48.072;11.970;2023-07-20T12:41:02;2.45;;;1.48;;
65206;SDS011;58477;48.072;11.970;2023-07-20T12:43:28;2.13;;;1.40;;
65206;SDS011;58477;48.072;11.970;2023-07-20T12:45:55;2.53;;;1.40;;
65206;SDS011;58477;48.072;11.970;2023-07-20T12:48:21;2.03;;;1.20;;
65206;SDS011;58477;48.072;11.970;2023-07-20T12:50:47;1.77;;;1.30;;
65206;SDS011;58477;48.072;11.970;2023-07-20T12:53:12;1.80;;;1.35;;
65206;SDS011;58477;48.072;11.970;2023-07-20T12:55:38;1.50;;;1.30;;
65206;SDS011;58477;48.072;11.970;2023-07-20T12:58:07;2.45;;;1.48;;
65206;SDS011;58477;48.072;11.970;2023-07-20T13:00:33;7.30;;;1.75;;
65206;SDS011;58477;48.072;11.970;2023-07-20T13:02:59;1.40;;;1.30;;
65206;SDS011;58477;48.072;11.970;2023-07-20T13:05:25;3.08;;;1.35;;
65206;SDS011;58477;48.072;11.970;2023-07-20T13:07:50;2.00;;;1.50;;
65206;SDS011;58477;48.072;11.970;2023-07-20T13:10:16;1.98;;;1.20;;
65206;SDS011;58477;48.072;11.970;2023-07-20T13:12:41;1.80;;;1.40;;
65206;SDS011;58477;48.072;11.970;2023-07-20T13:15:08;1.55;;;1.33;;
65206;SDS011;58477;48.072;11.970;2023-07-20T13:17:34;1.67;;;1.27;;
65206;SDS011;58477;48.072;11.970;2023-07-20T13:20:01;3.95;;;1.20;;
65206;SDS011;58477;48.072;11.970;2023-07-20T13:22:29;5.38;;;1.52;;
65206;SDS011;58477;48.072;11.970;2023-07-20T13:24:55;2.83;;;1.30;;
65206;SDS011;58477;48.072;11.970;2023-07-20T13:27:21;2.13;;;1.25;;
65206;SDS011;58477;48.072;11.970;2023-07-20T13:29:46;1.23;;;1.13;;
65206;SDS011;58477;48.072;11.970;2023-07-20T13:32:15;2.33;;;1.55;;
65206;SDS011;58477;48.072;11.970;2023-07-20T13:34:41;5.47;;;1.20;;
65206;SDS011;58477;48.072;11.970;2023-07-20T13:37:07;1.35;;;1.23;;
65206;SDS011;58477;48.072;11.970;2023-07-20T13:39:33;4.88;;;1.42;;
65206;SDS011;58477;48.072;11.970;2023-07-20T13:41:58;3.60;;;1.30;;
65206;SDS011;58477;48.072;11.970;2023-07-20T13:44:26;1.30;;;1.13;;
65206;SDS011;58477;48.072;11.970;2023-07-20T13:46:52;1.55;;;1.40;;
65206;SDS011;58477;48.072;11.970;2023-07-20T13:49:17;1.88;;;1.02;;
65206;SDS011;58477;48.072;11.970;2023-07-20T13:51:42;1.48;;;1.10;;
65206;SDS011;58477;48.072;11.970;2023-07-20T13:54:08;2.95;;;1.67;;
65206;SDS011;58477;48.072;11.970;2023-07-20T13:56:34;4.18;;;1.30;;
65206;SDS011;58477;48.072;11.970;2023-07-20T13:59:00;1.25;;;1.15;;
65206;SDS011;58477;48.072;11.970;2023-07-20T14:01:26;1.48;;;1.05;;
65206;SDS011;58477;48.072;11.970;2023-07-20T14:03:53;3.50;;;1.00;;
65206;SDS011;58477;48.072;11.970;2023-07-20T14:06:19;9.90;;;1.95;;
65206;SDS011;58477;48.072;11.970;2023-07-20T14:08:44;2.05;;;1.08;;
65206;SDS011;58477;48.072;11.970;2023-07-20T14:11:13;1.20;;;1.10;;
65206;SDS011;58477;48.072;11.970;2023-07-20T14:13:39;6.13;;;1.30;;
65206;SDS011;58477;48.072;11.970;2023-07-20T14:16:05;4.20;;;1.23;;
65206;SDS011;58477;48.072;11.970;2023-07-20T14:18:31;3.72;;;1.25;;
65206;SDS011;58477;48.072;11.970;2023-07-20T14:20:56;2.33;;;1.23;;
65206;SDS011;58477;48.072;11.970;2023-07-20T14:23:22;1.60;;;1.17;;
65206;SDS011;58477;48.072;11.970;2023-07-20T14:25:47;3.63;;;1.33;;
65206;SDS011;58477;48.072;11.970;2023-07-20T14:28:13;4.18;;;1.30;;
65206;SDS011;58477;48.072;11.970;2023-07-20T14:30:39;1.67;;;1.50;;
65206;SDS011;58477;48.072;11.970;2023-07-20T14:33:04;1.67;;;1.05;;
65206;SDS011;58477;48.072;11.970;2023-07-20T14:35:29;2.85;;;1.40;;
65206;SDS011;58477;48.072;11.970;2023-07-20T14:37:55;2.58;;;1.17;;
65206;SDS011;58477;48.072;11.970;2023-07-20T14:40:20;2.13;;;1.73;;
65206;SDS011;58477;48.072;11.970;2023-07-20T14:42:46;2.97;;;1.20;;
65206;SDS011;58477;48.072;11.970;2023-07-20T14:45:11;4.32;;;1.15;;
65206;SDS011;58477;48.072;11.970;2023-07-20T14:47:37;2.50;;;1.05;;
65206;SDS011;58477;48.072;11.970;2023-07-20T14:50:02;2.78;;;1.20;;
65206;SDS011;58477;48.072;11.970;2023-07-20T14:52:28;1.83;;;1.25;;
65206;SDS011;58477;48.072;11.970;2023-07-20T14:54:54;1.73;;;1.20;;